createdAt,value
2019-03-06T00:02:13.828Z,70.69
2019-03-06T00:04:43.531Z,69.85
2019-03-06T00:07:13.131Z,69.52
2019-03-06T00:09:42.888Z,70.09
2019-03-06T00:12:15.454Z,69.79
2019-03-06T00:14:45.167Z,70.11
2019-03-06T00:17:14.931Z,69.96
2019-03-06T00:19:44.615Z,70.15
2019-03-06T00:22:14.431Z,70.91
2019-03-06T00:24:44.177Z,72.00
2019-03-06T00:27:13.784Z,72.01
2019-03-06T00:29:43.567Z,71.92
2019-03-06T00:32:13.141Z,71.98
2019-03-06T00:34:42.924Z,72.82
2019-03-06T00:37:13.691Z,73.06
2019-03-06T00:39:54.310Z,72.01
2019-03-06T00:42:23.977Z,72.43
2019-03-06T00:44:53.509Z,71.80
2019-03-06T00:47:23.282Z,72.16
2019-03-06T00:49:53.009Z,72.40
2019-03-06T00:52:22.716Z,72.31
2019-03-06T00:54:52.386Z,72.24
2019-03-06T00:57:21.924Z,72.20
2019-03-06T00:59:51.764Z,72.75
2019-03-06T01:02:22.745Z,73.34
2019-03-06T01:04:54.811Z,73.14
2019-03-06T01:07:24.420Z,73.07
2019-03-06T01:09:54.306Z,72.84
2019-03-06T01:12:23.863Z,72.97
2019-03-06T01:14:53.599Z,73.09
2019-03-06T01:17:23.180Z,72.70
2019-03-06T01:19:52.843Z,72.62
2019-03-06T01:22:22.758Z,72.29
2019-03-06T01:24:52.404Z,72.83
2019-03-06T01:27:22.086Z,73.16
2019-03-06T01:29:51.752Z,72.92
2019-03-06T01:32:21.440Z,72.33
2019-03-06T01:35:08.537Z,72.25
2019-03-06T01:37:56.066Z,71.76
2019-03-06T01:40:36.514Z,71.37
2019-03-06T01:43:14.017Z,71.75
2019-03-06T01:45:43.540Z,71.78
2019-03-06T01:48:13.412Z,71.99
2019-03-06T01:50:45.511Z,72.24
2019-03-06T01:53:15.268Z,72.63
2019-03-06T01:55:44.704Z,72.56
2019-03-06T01:58:14.344Z,73.04
2019-03-06T02:00:44.390Z,73.80
2019-03-06T02:03:14.245Z,73.54
2019-03-06T02:05:43.906Z,73.80
2019-03-06T02:08:14.003Z,73.99
2019-03-06T02:10:43.576Z,74.56
2019-03-06T02:13:13.553Z,74.37
2019-03-06T02:15:43.376Z,74.04
2019-03-06T02:18:13.064Z,74.69
2019-03-06T02:20:42.591Z,74.69
2019-03-06T02:23:12.473Z,74.67
2019-03-06T02:25:42.194Z,74.81
2019-03-06T02:28:11.972Z,74.96
2019-03-06T02:30:41.633Z,74.03
2019-03-06T02:33:11.517Z,74.62
2019-03-06T02:35:41.482Z,74.27
2019-03-06T02:38:11.068Z,73.80
2019-03-06T02:40:40.762Z,73.80
2019-03-06T02:43:10.537Z,74.09
2019-03-06T02:45:42.214Z,73.50
2019-03-06T02:48:11.632Z,73.48
2019-03-06T02:50:41.342Z,73.86
2019-03-06T02:53:10.958Z,74.02
2019-03-06T02:55:40.680Z,73.87
2019-03-06T02:58:19.302Z,73.81
2019-03-06T03:01:11.121Z,73.99
2019-03-06T03:04:08.768Z,73.49
2019-03-06T03:06:45.039Z,72.85
2019-03-06T03:09:20.826Z,73.46
2019-03-06T03:11:50.441Z,73.46
2019-03-06T03:14:20.190Z,73.82
2019-03-06T03:16:49.849Z,73.51
2019-03-06T03:19:19.538Z,73.39
2019-03-06T03:21:49.326Z,73.17
2019-03-06T03:24:19.196Z,73.58
2019-03-06T03:26:48.664Z,73.85
2019-03-06T03:29:18.393Z,74.29
2019-03-06T03:31:47.998Z,74.09
2019-03-06T03:34:20.106Z,74.11
2019-03-06T03:36:49.967Z,74.05
2019-03-06T03:39:19.662Z,74.05
2019-03-06T03:41:49.224Z,74.31
2019-03-06T03:44:18.809Z,73.51
2019-03-06T03:46:48.465Z,73.28
2019-03-06T03:49:18.245Z,73.76
2019-03-06T03:51:47.818Z,73.62
2019-03-06T03:54:17.483Z,73.40
2019-03-06T03:56:47.220Z,73.08
2019-03-06T03:59:16.799Z,73.08
2019-03-06T04:01:46.725Z,73.12
2019-03-06T04:04:16.151Z,73.86
2019-03-06T04:06:46.212Z,73.86
2019-03-06T04:09:18.025Z,73.92
2019-03-06T04:11:47.593Z,73.92
2019-03-06T04:14:17.460Z,73.72
2019-03-06T04:16:47.171Z,74.03
2019-03-06T04:19:16.817Z,74.41
2019-03-06T04:21:46.417Z,74.83
2019-03-06T04:24:16.035Z,74.63
2019-03-06T04:26:45.872Z,74.17
2019-03-06T04:29:15.565Z,74.20
2019-03-06T04:31:45.374Z,74.04
2019-03-06T04:34:15.001Z,73.97
2019-03-06T04:36:46.302Z,73.77
2019-03-06T04:39:15.815Z,73.46
2019-03-06T04:41:45.531Z,74.11
2019-03-06T04:44:15.307Z,74.11
2019-03-06T04:46:44.989Z,74.02
2019-03-06T04:49:14.672Z,73.95
2019-03-06T04:51:44.219Z,74.20
2019-03-06T04:54:13.875Z,73.72
2019-03-06T04:56:43.582Z,73.73
2019-03-06T04:59:13.159Z,73.73
2019-03-06T05:01:43.020Z,73.44
2019-03-06T05:04:12.711Z,72.99
2019-03-06T05:06:42.315Z,72.87
2019-03-06T05:09:12.085Z,72.49
2019-03-06T05:11:41.658Z,73.37
2019-03-06T05:14:11.522Z,72.69
2019-03-06T05:17:02.583Z,71.14
2019-03-06T05:19:32.214Z,70.16
2019-03-06T05:22:04.305Z,70.16
2019-03-06T05:24:34.033Z,70.91
2019-03-06T05:27:03.745Z,70.50
2019-03-06T05:29:33.317Z,71.25
2019-03-06T05:32:30.686Z,72.25
2019-03-06T05:35:12.181Z,72.91
2019-03-06T05:38:06.259Z,72.84
2019-03-06T05:40:36.002Z,72.48
2019-03-06T05:43:05.875Z,72.60
2019-03-06T05:45:35.746Z,72.53
2019-03-06T05:48:05.645Z,72.29
2019-03-06T05:50:35.384Z,71.73
2019-03-06T05:53:05.032Z,71.73
2019-03-06T05:55:34.715Z,71.90
2019-03-06T05:58:04.714Z,71.44
2019-03-06T06:00:34.485Z,71.59
2019-03-06T06:03:04.156Z,71.27
2019-03-06T06:05:33.743Z,69.75
2019-03-06T06:08:03.505Z,69.29
2019-03-06T06:10:33.395Z,69.33
2019-03-06T06:13:02.992Z,67.73
2019-03-06T06:15:32.790Z,67.86
2019-03-06T06:18:02.392Z,67.21
2019-03-06T06:20:32.253Z,67.23
2019-03-06T06:23:17.317Z,67.69
2019-03-06T06:25:46.910Z,67.70
2019-03-06T06:28:16.638Z,68.37
2019-03-06T06:30:46.355Z,68.87
2019-03-06T06:33:16.007Z,68.31
2019-03-06T06:35:45.632Z,68.26
2019-03-06T06:38:15.058Z,68.20
2019-03-06T06:40:44.797Z,68.61
2019-03-06T06:43:14.361Z,68.75
2019-03-06T06:45:44.127Z,68.40
2019-03-06T06:48:18.429Z,68.05
2019-03-06T06:51:01.531Z,68.35
2019-03-06T06:53:45.165Z,68.50
2019-03-06T06:56:41.970Z,68.15
2019-03-06T06:59:25.755Z,67.80
2019-03-06T07:02:51.799Z,67.41
2019-03-06T07:05:45.768Z,66.80
2019-03-06T07:08:24.906Z,65.57
2019-03-06T07:11:25.537Z,64.28
2019-03-06T07:14:07.509Z,63.91
2019-03-06T07:17:11.564Z,63.31
2019-03-06T07:19:47.289Z,62.08
2019-03-06T07:22:36.052Z,60.60
2019-03-06T07:25:23.411Z,59.88
2019-03-06T07:28:00.419Z,56.84
2019-03-06T07:30:48.015Z,53.91
2019-03-06T07:33:49.095Z,51.61
2019-03-06T07:36:36.607Z,49.55
2019-03-06T07:39:18.211Z,48.75
2019-03-06T07:41:58.966Z,46.61
2019-03-06T07:44:53.653Z,43.85
2019-03-06T07:47:41.122Z,42.14
2019-03-06T07:50:45.942Z,42.78
2019-03-06T07:53:53.721Z,42.20
2019-03-06T07:56:44.739Z,39.53
2019-03-06T07:59:14.380Z,36.04
2019-03-06T08:01:50.904Z,33.92
2019-03-06T08:04:20.541Z,33.74
2019-03-06T08:07:00.658Z,35.28
2019-03-06T08:09:30.286Z,32.55
2019-03-06T08:12:17.718Z,31.61
2019-03-06T08:15:21.565Z,29.03
2019-03-06T08:18:06.304Z,29.58
2019-03-06T08:20:47.413Z,29.95
2019-03-06T08:23:26.454Z,30.96
2019-03-06T08:25:56.202Z,31.36
2019-03-06T08:28:25.870Z,31.86
2019-03-06T08:31:00.084Z,29.40
2019-03-06T08:33:29.826Z,28.42
2019-03-06T08:35:59.517Z,25.21
2019-03-06T08:38:29.275Z,26.60
2019-03-06T08:41:04.287Z,25.38
2019-03-06T08:43:30.269Z,24.55
2019-03-06T08:46:07.791Z,25.52
2019-03-06T08:48:46.893Z,25.32
2019-03-06T08:51:29.148Z,25.53
2019-03-06T08:54:19.948Z,27.42
2019-03-06T08:57:13.384Z,30.39
2019-03-06T09:03:10.358Z,27.36
2019-03-06T09:05:54.519Z,29.23
2019-03-06T09:08:39.830Z,30.30
2019-03-06T09:11:20.406Z,29.30
2019-03-06T09:14:07.011Z,27.75
2019-03-06T09:16:58.447Z,26.30
2019-03-06T09:19:36.100Z,23.95
2019-03-06T09:22:42.121Z,23.96
2019-03-06T09:25:29.177Z,24.34
2019-03-06T09:28:13.187Z,23.31
2019-03-06T09:30:49.002Z,22.20
2019-03-06T09:33:53.017Z,19.34
2019-03-06T09:36:41.655Z,21.65
2019-03-06T09:39:33.557Z,24.65
2019-03-06T09:42:34.505Z,27.25
2019-03-06T09:45:24.489Z,28.94
2019-03-06T09:48:31.392Z,30.10
2019-03-06T09:51:15.107Z,31.72
2019-03-06T09:54:09.738Z,34.33
2019-03-06T09:56:58.912Z,37.04
2019-03-06T09:59:36.377Z,37.17
2019-03-06T10:02:25.113Z,40.24
2019-03-06T10:05:09.712Z,45.19
2019-03-06T10:07:50.244Z,43.71
2019-03-06T10:10:46.191Z,44.25
2019-03-06T10:13:16.666Z,43.59
2019-03-06T10:16:08.740Z,38.64
2019-03-06T10:18:54.190Z,32.64
2019-03-06T10:21:25.763Z,31.67
2019-03-06T10:23:55.620Z,29.34
2019-03-06T10:26:25.411Z,25.17
2019-03-06T10:28:54.937Z,24.81
2019-03-06T10:31:24.585Z,24.53
2019-03-06T10:33:54.387Z,24.00
2019-03-06T10:36:24.085Z,24.53
2019-03-06T10:38:56.446Z,25.24
2019-03-06T10:41:26.124Z,23.78
2019-03-06T10:43:55.845Z,22.08
2019-03-06T10:46:25.535Z,24.28
2019-03-06T10:48:55.339Z,22.85
2019-03-06T10:51:25.099Z,23.26
2019-03-06T10:53:54.868Z,21.49
2019-03-06T10:56:24.652Z,20.44
2019-03-06T10:58:54.496Z,19.68
2019-03-06T11:01:24.498Z,18.64
2019-03-06T11:04:25.449Z,16.73
2019-03-06T11:06:55.563Z,16.54
2019-03-06T11:09:26.456Z,16.60
2019-03-06T11:11:56.463Z,15.51
2019-03-06T11:14:28.606Z,15.93
2019-03-06T11:16:58.436Z,18.02
2019-03-06T11:19:28.527Z,17.43
2019-03-06T11:21:58.237Z,16.83
2019-03-06T11:24:28.076Z,17.54
2019-03-06T11:26:58.310Z,17.30
2019-03-06T11:29:27.992Z,18.27
2019-03-06T11:31:57.714Z,16.67
2019-03-06T11:34:27.480Z,15.91
2019-03-06T11:36:58.093Z,15.10
2019-03-06T11:39:28.064Z,14.58
2019-03-06T11:41:57.965Z,14.70
2019-03-06T11:44:27.656Z,15.66
2019-03-06T11:46:57.222Z,16.17
2019-03-06T11:49:26.843Z,16.68
2019-03-06T11:51:56.599Z,18.58
2019-03-06T11:54:26.126Z,19.60
2019-03-06T11:56:55.700Z,20.26
2019-03-06T11:59:25.326Z,20.90
2019-03-06T12:01:54.941Z,21.60
2019-03-06T12:04:27.422Z,21.58
2019-03-06T12:06:57.374Z,22.87
2019-03-06T12:09:29.467Z,23.11
2019-03-06T12:11:59.295Z,25.03
2019-03-06T12:14:28.970Z,24.61
2019-03-06T12:16:58.748Z,25.02
2019-03-06T12:19:28.518Z,25.26
2019-03-06T12:21:58.712Z,25.19
2019-03-06T12:24:28.419Z,27.11
2019-03-06T12:26:58.056Z,26.88
2019-03-06T12:29:27.893Z,27.55
2019-03-06T12:31:57.770Z,28.13
2019-03-06T12:34:27.803Z,28.36
2019-03-06T12:36:57.675Z,27.70
2019-03-06T12:39:27.268Z,30.00
2019-03-06T12:41:58.828Z,30.01
2019-03-06T12:44:28.433Z,28.87
2019-03-06T12:47:00.741Z,29.41
2019-03-06T12:49:31.006Z,29.11
2019-03-06T12:52:00.756Z,30.44
2019-03-06T12:54:31.398Z,30.50
2019-03-06T12:57:01.082Z,30.06
2019-03-06T12:59:31.347Z,30.33
2019-03-06T13:02:01.085Z,29.89
2019-03-06T13:04:30.765Z,30.31
2019-03-06T13:07:00.505Z,30.43
2019-03-06T13:09:30.171Z,31.40
2019-03-06T13:12:01.626Z,31.20
2019-03-06T13:14:31.358Z,31.44
2019-03-06T13:17:00.948Z,31.02
2019-03-06T13:19:30.625Z,31.64
2019-03-06T13:22:00.173Z,30.27
2019-03-06T13:24:32.130Z,29.90
2019-03-06T13:27:02.044Z,29.27
2019-03-06T13:29:31.628Z,30.36
2019-03-06T13:32:01.316Z,29.37
2019-03-06T13:34:50.283Z,30.19
2019-03-06T13:37:14.965Z,29.84
2019-03-06T13:39:44.808Z,28.54
2019-03-06T13:42:14.474Z,30.19
2019-03-06T13:44:44.225Z,29.55
2019-03-06T13:47:14.038Z,29.92
2019-03-06T13:49:43.926Z,29.10
2019-03-06T13:52:13.884Z,28.05
2019-03-06T13:54:45.607Z,27.21
2019-03-06T13:57:15.775Z,28.24
2019-03-06T13:59:45.395Z,27.26
2019-03-06T14:02:15.103Z,29.01
2019-03-06T14:04:44.736Z,29.41
2019-03-06T14:07:14.668Z,29.46
2019-03-06T14:09:44.276Z,29.92
2019-03-06T14:12:13.922Z,29.61
2019-03-06T14:14:43.536Z,30.34
2019-03-06T14:17:13.329Z,30.24
2019-03-06T14:19:42.993Z,28.73
2019-03-06T14:22:12.731Z,31.00
2019-03-06T14:24:42.405Z,28.93
2019-03-06T14:27:12.065Z,29.30
2019-03-06T14:29:41.777Z,29.65
2019-03-06T14:32:14.870Z,29.32
2019-03-06T14:34:43.147Z,28.44
2019-03-06T14:37:12.841Z,28.77
2019-03-06T14:39:42.542Z,29.46
2019-03-06T14:42:12.651Z,28.03
2019-03-06T14:44:42.160Z,28.51
2019-03-06T14:47:13.287Z,28.88
2019-03-06T14:49:42.858Z,29.94
2019-03-06T14:52:12.694Z,30.13
2019-03-06T14:54:42.294Z,29.63
2019-03-06T14:57:12.214Z,30.00
2019-03-06T14:59:42.071Z,29.61
2019-03-06T15:02:12.096Z,29.39
2019-03-06T15:04:41.769Z,29.20
2019-03-06T15:07:11.505Z,29.30
2019-03-06T15:09:41.184Z,28.92
2019-03-06T15:12:10.836Z,27.70
2019-03-06T15:14:40.577Z,28.43
2019-03-06T15:17:10.263Z,28.47
2019-03-06T15:19:41.864Z,28.18
2019-03-06T15:22:11.433Z,29.32
2019-03-06T15:24:41.893Z,28.08
2019-03-06T15:27:11.634Z,28.15
2019-03-06T15:29:44.357Z,28.48
2019-03-06T15:32:14.088Z,28.67
2019-03-06T15:34:43.847Z,29.19
2019-03-06T15:37:13.614Z,29.81
2019-03-06T15:39:48.730Z,30.11
2019-03-06T15:42:15.663Z,30.29
2019-03-06T15:44:45.388Z,28.19
2019-03-06T15:47:15.190Z,28.40
2019-03-06T15:49:44.950Z,29.09
2019-03-06T15:52:14.628Z,29.65
2019-03-06T15:54:44.370Z,30.13
2019-03-06T15:57:14.221Z,30.08
2019-03-06T15:59:43.819Z,30.09
2019-03-06T16:02:13.728Z,30.91
2019-03-06T16:04:43.429Z,30.29
2019-03-06T16:07:13.113Z,30.24
2019-03-06T16:09:43.029Z,28.79
2019-03-06T16:12:13.006Z,29.13
2019-03-06T16:14:42.635Z,29.24
2019-03-06T16:17:12.207Z,30.14
2019-03-06T16:19:41.854Z,30.07
2019-03-06T16:22:11.810Z,30.07
2019-03-06T16:24:41.502Z,29.93
2019-03-06T16:27:11.151Z,30.51
2019-03-06T16:29:40.792Z,30.26
2019-03-06T16:32:10.361Z,30.44
2019-03-06T16:34:40.079Z,29.88
2019-03-06T16:37:09.847Z,30.50
2019-03-06T16:39:41.618Z,29.68
2019-03-06T16:42:11.273Z,29.61
2019-03-06T16:44:40.938Z,29.78
2019-03-06T16:47:12.052Z,31.16
2019-03-06T16:49:41.970Z,30.66
2019-03-06T16:52:12.587Z,32.90
2019-03-06T16:54:42.204Z,32.50
2019-03-06T16:57:13.534Z,33.72
2019-03-06T16:59:43.309Z,33.53
2019-03-06T17:02:13.840Z,34.04
2019-03-06T17:04:43.581Z,35.12
2019-03-06T17:07:13.115Z,34.81
2019-03-06T17:09:42.729Z,35.12
2019-03-06T17:12:12.460Z,34.99
2019-03-06T17:14:42.258Z,35.10
2019-03-06T17:17:11.957Z,35.01
2019-03-06T17:19:41.604Z,35.36
2019-03-06T17:22:11.253Z,36.05
2019-03-06T17:24:41.078Z,35.34
2019-03-06T17:27:11.053Z,35.42
2019-03-06T17:29:41.191Z,35.58
2019-03-06T17:32:11.131Z,35.82
2019-03-06T17:34:42.635Z,35.05
2019-03-06T17:37:12.380Z,34.95
2019-03-06T17:39:42.056Z,35.22
2019-03-06T17:42:11.684Z,35.52
2019-03-06T17:44:41.781Z,35.63
2019-03-06T17:47:11.527Z,36.00
2019-03-06T17:49:42.314Z,36.09
2019-03-06T17:52:11.993Z,36.54
2019-03-06T17:54:42.526Z,36.62
2019-03-06T17:57:12.375Z,36.99
2019-03-06T17:59:43.292Z,37.02
2019-03-06T18:02:13.316Z,37.45
2019-03-06T18:04:43.141Z,37.75
2019-03-06T18:07:12.934Z,38.01
2019-03-06T18:09:42.724Z,38.31
2019-03-06T18:12:12.539Z,38.49
2019-03-06T18:14:42.438Z,38.78
2019-03-06T18:17:13.576Z,38.80
2019-03-06T18:19:43.310Z,39.22
2019-03-06T18:22:12.988Z,38.91
2019-03-06T18:24:43.195Z,38.90
2019-03-06T18:27:12.844Z,39.53
2019-03-06T18:29:42.573Z,39.43
2019-03-06T18:32:12.474Z,39.92
2019-03-06T18:34:42.073Z,39.96
2019-03-06T18:37:11.753Z,39.90
2019-03-06T18:39:41.705Z,39.51
2019-03-06T18:42:11.335Z,39.37
2019-03-06T18:44:41.051Z,39.45
2019-03-06T18:47:10.762Z,39.73
2019-03-06T18:49:40.674Z,39.72
2019-03-06T18:52:11.662Z,39.77
2019-03-06T18:54:41.420Z,39.86
2019-03-06T18:57:13.276Z,39.75
2019-03-06T18:59:42.516Z,39.80
2019-03-06T19:02:12.346Z,40.29
2019-03-06T19:04:41.840Z,40.49
2019-03-06T19:07:11.807Z,40.36
2019-03-06T19:09:41.318Z,40.34
2019-03-06T19:12:10.902Z,39.88
2019-03-06T19:14:42.448Z,40.32
2019-03-06T19:17:12.149Z,40.10
2019-03-06T19:19:41.865Z,40.10
2019-03-06T19:22:11.775Z,40.90
2019-03-06T19:24:41.303Z,41.03
2019-03-06T19:27:11.207Z,40.09
2019-03-06T19:29:40.880Z,40.15
2019-03-06T19:32:10.430Z,40.34
2019-03-06T19:34:40.448Z,40.79
2019-03-06T19:37:10.265Z,40.68
2019-03-06T19:39:40.059Z,40.83
2019-03-06T19:42:09.888Z,41.25
2019-03-06T19:44:39.410Z,41.53
2019-03-06T19:47:09.430Z,42.42
2019-03-06T19:49:39.257Z,42.86
2019-03-06T19:52:08.829Z,43.02
2019-03-06T19:54:38.458Z,43.42
2019-03-06T19:57:08.244Z,43.61
2019-03-06T19:59:37.959Z,41.36
2019-03-06T20:02:08.053Z,41.56
2019-03-06T20:04:38.027Z,41.65
2019-03-06T20:07:09.792Z,41.19
2019-03-06T20:09:39.475Z,41.14
2019-03-06T20:12:09.186Z,41.03
2019-03-06T20:14:39.035Z,40.70
2019-03-06T20:17:08.756Z,40.48
2019-03-06T20:19:38.380Z,40.87
2019-03-06T20:22:07.976Z,40.80
2019-03-06T20:24:37.523Z,41.19
2019-03-06T20:27:07.229Z,41.28
2019-03-06T20:29:37.002Z,41.46
2019-03-06T20:32:06.565Z,41.63
2019-03-06T20:34:36.239Z,41.91
2019-03-06T20:37:05.939Z,42.14
2019-03-06T20:39:35.656Z,41.66
2019-03-06T20:42:05.285Z,41.92
2019-03-06T20:44:34.944Z,42.29
2019-03-06T20:47:04.524Z,42.45
2019-03-06T20:49:34.283Z,42.62
2019-03-06T20:52:04.009Z,42.40
2019-03-06T20:54:33.626Z,42.66
2019-03-06T20:57:03.319Z,42.68
2019-03-06T20:59:32.869Z,42.35
2019-03-06T21:02:04.263Z,42.27
2019-03-06T21:04:34.132Z,42.33
2019-03-06T21:07:03.880Z,41.85
2019-03-06T21:09:33.593Z,42.02
2019-03-06T21:12:03.362Z,42.13
2019-03-06T21:14:32.986Z,42.13
2019-03-06T21:17:02.515Z,42.17
2019-03-06T21:19:32.141Z,42.04
2019-03-06T21:22:01.755Z,42.03
2019-03-06T21:24:31.483Z,42.15
2019-03-06T21:27:02.678Z,42.17
2019-03-06T21:29:32.311Z,43.04
2019-03-06T21:32:01.908Z,43.12
2019-03-06T21:34:31.621Z,43.21
2019-03-06T21:37:01.259Z,44.59
2019-03-06T21:39:30.878Z,44.80
2019-03-06T21:42:00.543Z,44.58
2019-03-06T21:44:30.226Z,46.74
2019-03-06T21:46:59.930Z,46.70
2019-03-06T21:49:30.366Z,46.37
2019-03-06T21:52:02.650Z,46.41
2019-03-06T21:54:32.303Z,47.05
2019-03-06T21:57:02.023Z,48.47
2019-03-06T21:59:31.869Z,47.96
2019-03-06T22:02:01.554Z,47.52
2019-03-06T22:04:33.245Z,48.03
2019-03-06T22:07:02.536Z,47.51
2019-03-06T22:09:32.209Z,48.41
2019-03-06T22:12:02.004Z,48.95
2019-03-06T22:14:31.547Z,49.24
2019-03-06T22:17:01.200Z,49.35
2019-03-06T22:19:31.656Z,50.34
2019-03-06T22:22:01.508Z,49.45
2019-03-06T22:24:31.146Z,49.95
2019-03-06T22:27:00.693Z,49.16
2019-03-06T22:29:30.343Z,49.86
2019-03-06T22:31:59.947Z,49.38
2019-03-06T22:34:29.790Z,49.60
2019-03-06T22:36:59.304Z,48.94
2019-03-06T22:39:30.103Z,46.82
2019-03-06T22:41:59.779Z,46.95
2019-03-06T22:44:29.512Z,46.84
2019-03-06T22:47:01.438Z,47.09
2019-03-06T22:49:31.007Z,46.59
2019-03-06T22:52:00.638Z,46.95
2019-03-06T22:54:30.421Z,47.52
2019-03-06T22:57:00.151Z,47.40
2019-03-06T22:59:29.865Z,47.14
2019-03-06T23:02:01.916Z,46.85
2019-03-06T23:04:31.479Z,46.92
2019-03-06T23:07:01.130Z,47.28
2019-03-06T23:09:30.876Z,47.62
2019-03-06T23:12:00.493Z,47.98
2019-03-06T23:14:31.561Z,48.03
2019-03-06T23:17:01.123Z,48.07
2019-03-06T23:19:30.814Z,48.00
2019-03-06T23:22:00.467Z,48.30
2019-03-06T23:24:30.179Z,48.30
2019-03-06T23:27:01.767Z,48.91
2019-03-06T23:29:33.526Z,48.91
2019-03-06T23:32:03.187Z,49.04
2019-03-06T23:34:32.797Z,49.04
2019-03-06T23:37:02.572Z,49.14
2019-03-06T23:39:32.163Z,49.08
2019-03-06T23:42:02.995Z,49.46
2019-03-06T23:44:32.735Z,49.46
2019-03-06T23:47:02.394Z,49.49
2019-03-06T23:49:32.094Z,49.49
2019-03-06T23:52:06.839Z,49.23
2019-03-06T23:54:36.357Z,49.57
2019-03-06T23:57:06.119Z,49.57
2019-03-06T23:59:36.503Z,50.08
